Time;durP1;ratioP1;P1;durP2;ratioP2;P2;SDS_P1;SDS_P2;PMS_P1;PMS_P2;Temp;Humidity;BMP_temperature;BMP_pressure;BME280_temperature;BME280_humidity;BME280_pressure;Samples;Min_cycle;Max_cycle;Signal;HPM_P1;HPM_P2
2023/05/22 00:01:50;;;;;;;17.73;15.80;;;20.30;99.90;;;;;;4850656;29;20050;-89
2023/05/22 00:04:20;;;;;;;18.20;15.52;;;20.40;99.90;;;;;;4852728;29;20058;-89
2023/05/22 00:06:46;;;;;;;17.25;14.90;;;20.30;99.90;;;;;;4859603;29;20624;-88
2023/05/22 00:09:12;;;;;;;17.13;15.32;;;20.30;99.90;;;;;;4857949;29;20084;-89
2023/05/22 00:11:38;;;;;;;18.23;16.23;;;20.30;99.90;;;;;;4848154;29;20076;-88
2023/05/22 00:14:04;;;;;;;16.88;15.07;;;20.20;99.90;;;;;;4849333;29;20042;-88
2023/05/22 00:16:30;;;;;;;17.95;15.98;;;20.30;99.90;;;;;;4845134;29;20156;-89
2023/05/22 00:18:56;;;;;;;17.88;15.98;;;20.20;99.90;;;;;;4856365;29;20053;-89
2023/05/22 00:21:23;;;;;;;17.48;15.63;;;20.20;99.90;;;;;;4862283;29;20088;-89
2023/05/22 00:23:49;;;;;;;17.88;15.95;;;20.30;99.90;;;;;;4852513;29;20050;-89
2023/05/22 00:26:15;;;;;;;17.88;15.98;;;20.20;99.90;;;;;;4845660;29;20052;-89
2023/05/22 00:28:41;;;;;;;17.83;15.95;;;20.20;99.90;;;;;;4873829;29;20098;-89
2023/05/22 00:31:07;;;;;;;18.27;15.80;;;20.20;99.90;;;;;;4847533;29;20046;-89
2023/05/22 00:33:33;;;;;;;16.90;15.10;;;20.20;99.90;;;;;;4843634;29;20057;-88
2023/05/22 00:35:59;;;;;;;16.88;15.07;;;20.20;99.90;;;;;;4874328;29;20050;-89
2023/05/22 00:38:33;;;;;;;17.70;15.80;;;20.10;99.90;;;;;;4874154;29;20144;-89
2023/05/22 00:41:00;;;;;;;17.77;15.57;;;20.10;99.90;;;;;;4845007;29;20503;-89
2023/05/22 00:43:26;;;;;;;18.40;16.42;;;20.10;99.90;;;;;;4848049;29;20037;-89
2023/05/22 00:45:53;;;;;;;19.05;16.17;;;20.10;99.90;;;;;;4866620;29;20141;-89
2023/05/22 00:48:20;;;;;;;17.23;15.52;;;20.10;99.90;;;;;;4851824;29;20042;-89
2023/05/22 00:50:45;;;;;;;18.05;16.13;;;20.10;99.90;;;;;;4853380;29;20132;-90
2023/05/22 00:53:12;;;;;;;16.80;15.10;;;20.10;99.90;;;;;;4850209;29;20133;-89
2023/05/22 00:55:39;;;;;;;16.95;15.18;;;20.10;99.90;;;;;;4860435;29;20608;-89
2023/05/22 00:58:08;;;;;;;18.63;16.55;;;20.10;99.90;;;;;;4855407;29;20049;-90
2023/05/22 01:00:37;;;;;;;17.33;15.52;;;20.00;99.90;;;;;;4850220;29;20097;-89
2023/05/22 01:03:06;;;;;;;27.38;22.15;;;20.00;99.90;;;;;;4849450;29;20050;-88
2023/05/22 01:05:33;;;;;;;18.30;16.40;;;19.90;99.60;;;;;;4846959;29;20056;-89
2023/05/22 01:07:59;;;;;;;18.00;16.10;;;19.90;99.90;;;;;;4853228;29;20093;-89
2023/05/22 01:10:26;;;;;;;17.63;15.82;;;19.90;99.90;;;;;;4844393;29;20092;-89
2023/05/22 01:13:10;;;;;;;18.17;16.27;;;19.80;99.90;;;;;;4854269;29;20102;-89
2023/05/22 01:15:54;;;;;;;18.52;16.63;;;19.80;99.90;;;;;;4853847;29;20541;-90
2023/05/22 01:18:33;;;;;;;18.08;16.17;;;19.80;99.90;;;;;;4873165;29;20529;-90
2023/05/22 01:21:15;;;;;;;18.70;16.70;;;19.80;99.90;;;;;;4843472;29;20463;-90
2023/05/22 01:24:05;;;;;;;18.05;16.15;;;19.80;99.90;;;;;;4843420;29;20046;-89
2023/05/22 01:26:49;;;;;;;19.13;16.83;;;19.70;99.90;;;;;;4854592;29;20053;-89
2023/05/22 01:29:40;;;;;;;20.48;17.02;;;19.70;99.90;;;;;;4832992;29;20558;-90
2023/05/22 01:32:08;;;;;;;21.83;18.95;;;19.70;99.90;;;;;;4854196;29;20046;-90
2023/05/22 01:34:36;;;;;;;18.80;16.70;;;19.60;99.90;;;;;;4842600;29;20132;-89
2023/05/22 01:37:02;;;;;;;20.08;17.88;;;19.60;99.90;;;;;;4843544;29;20042;-89
2023/05/22 01:39:29;;;;;;;18.55;16.42;;;19.60;99.90;;;;;;4842796;29;20050;-91
2023/05/22 01:41:55;;;;;;;19.60;17.42;;;19.60;99.90;;;;;;4855723;29;20414;-90
2023/05/22 01:44:22;;;;;;;18.95;16.35;;;19.50;99.90;;;;;;4869160;29;20050;-89
2023/05/22 01:46:47;;;;;;;18.58;16.67;;;19.50;99.90;;;;;;4855166;29;20462;-90
2023/05/22 01:49:14;;;;;;;19.17;17.17;;;19.50;99.90;;;;;;4844597;29;20132;-89
2023/05/22 01:51:56;;;;;;;20.00;17.15;;;19.50;99.90;;;;;;4847703;29;20057;-90
2023/05/22 01:54:52;;;;;;;18.75;16.75;;;19.50;99.90;;;;;;4873255;29;20054;-89
2023/05/22 01:57:26;;;;;;;18.65;16.75;;;19.40;99.90;;;;;;4855527;29;20054;-90
2023/05/22 02:00:08;;;;;;;20.73;17.88;;;19.40;99.90;;;;;;4843156;29;20046;-89
2023/05/22 02:02:37;;;;;;;18.73;16.73;;;19.40;99.90;;;;;;4842263;29;20073;-91
2023/05/22 02:05:04;;;;;;;19.83;17.15;;;19.40;99.90;;;;;;4841991;29;20223;-88
2023/05/22 02:07:32;;;;;;;19.95;17.88;;;19.40;99.90;;;;;;4843733;29;20132;-90
2023/05/22 02:10:00;;;;;;;19.30;17.17;;;19.40;99.90;;;;;;4842037;29;20050;-89
2023/05/22 02:12:26;;;;;;;21.30;19.00;;;19.30;99.90;;;;;;4847710;29;20049;-90
2023/05/22 02:14:52;;;;;;;22.95;18.50;;;19.30;99.90;;;;;;4848209;29;20516;-90
2023/05/22 02:17:17;;;;;;;19.42;17.35;;;19.30;99.90;;;;;;4848173;29;20133;-90
2023/05/22 02:19:44;;;;;;;18.50;16.60;;;19.30;99.90;;;;;;4842530;29;20045;-90
2023/05/22 02:22:12;;;;;;;18.42;16.42;;;19.20;99.90;;;;;;4872317;29;20060;-89
2023/05/22 02:24:43;;;;;;;20.10;18.00;;;19.20;99.90;;;;;;4842938;29;20558;-89
2023/05/22 02:27:09;;;;;;;20.27;17.20;;;19.20;99.90;;;;;;4850798;29;20054;-89
2023/05/22 02:29:35;;;;;;;19.05;17.05;;;19.20;99.90;;;;;;4855542;29;20045;-90
2023/05/22 02:32:00;;;;;;;18.38;16.45;;;19.20;99.90;;;;;;4852586;29;20046;-89
2023/05/22 02:34:26;;;;;;;19.08;17.08;;;19.20;99.90;;;;;;4844140;29;20042;-89
2023/05/22 02:36:52;;;;;;;19.38;17.35;;;19.10;99.90;;;;;;4842565;29;20495;-89
2023/05/22 02:39:18;;;;;;;20.08;17.35;;;19.10;99.90;;;;;;4841913;29;20133;-90
2023/05/22 02:41:44;;;;;;;20.17;17.83;;;19.10;99.90;;;;;;4848475;29;20143;-90
2023/05/22 02:44:09;;;;;;;19.23;17.23;;;19.20;99.90;;;;;;4854071;29;20068;-90
2023/05/22 02:46:35;;;;;;;19.27;17.20;;;19.10;99.90;;;;;;4870746;29;20050;-89
2023/05/22 02:49:01;;;;;;;18.35;16.50;;;19.10;99.90;;;;;;4842932;29;20113;-90
2023/05/22 02:51:26;;;;;;;18.88;16.88;;;19.10;99.90;;;;;;4841870;29;20109;-90
2023/05/22 02:53:52;;;;;;;18.58;16.67;;;19.10;99.90;;;;;;4849841;29;20093;-90
2023/05/22 02:56:19;;;;;;;19.50;17.48;;;19.00;99.90;;;;;;4875083;29;20053;-88
2023/05/22 02:58:45;;;;;;;19.13;17.15;;;19.00;99.90;;;;;;4852994;29;20511;-89
2023/05/22 03:01:11;;;;;;;20.08;17.98;;;19.00;99.90;;;;;;4853586;29;20050;-89
2023/05/22 03:03:36;;;;;;;19.52;17.42;;;19.00;99.90;;;;;;4852186;29;20054;-89
2023/05/22 03:06:02;;;;;;;20.33;18.23;;;19.00;99.90;;;;;;4846993;29;20060;-88
2023/05/22 03:08:30;;;;;;;20.13;18.02;;;19.00;99.90;;;;;;4856768;29;20054;-90
2023/05/22 03:10:57;;;;;;;19.67;17.58;;;19.00;99.90;;;;;;4871826;29;20049;-88
2023/05/22 03:13:22;;;;;;;21.58;17.98;;;19.00;99.90;;;;;;4873636;29;20057;-89
2023/05/22 03:15:48;;;;;;;19.58;17.58;;;19.00;99.90;;;;;;4857641;29;20046;-89
2023/05/22 03:18:15;;;;;;;19.77;17.65;;;18.90;99.90;;;;;;4845702;29;20046;-89
2023/05/22 03:20:40;;;;;;;21.02;18.75;;;19.00;99.90;;;;;;4872619;29;20053;-90
2023/05/22 03:23:06;;;;;;;22.02;19.60;;;18.90;99.90;;;;;;4852241;29;20371;-89
2023/05/22 03:25:32;;;;;;;25.10;20.95;;;18.90;99.90;;;;;;4842843;29;20089;-89
2023/05/22 03:27:57;;;;;;;20.55;18.05;;;18.90;99.90;;;;;;4841429;29;20503;-89
2023/05/22 03:30:23;;;;;;;19.40;17.35;;;18.90;99.90;;;;;;4843216;29;20478;-88
2023/05/22 03:32:48;;;;;;;19.85;17.75;;;18.90;99.90;;;;;;4857434;29;20398;-88
2023/05/22 03:35:18;;;;;;;19.58;17.48;;;18.90;99.90;;;;;;4849121;29;20046;-88
2023/05/22 03:37:45;;;;;;;20.75;18.52;;;18.80;99.90;;;;;;4859703;29;20050;-89
2023/05/22 03:40:11;;;;;;;22.77;20.00;;;18.80;99.90;;;;;;4847251;29;20404;-89
2023/05/22 03:42:37;;;;;;;20.92;18.33;;;18.80;99.90;;;;;;4848333;29;20538;-89
2023/05/22 03:45:03;;;;;;;19.30;17.30;;;18.80;99.90;;;;;;4869902;29;20137;-88
2023/05/22 03:47:28;;;;;;;23.45;20.30;;;18.70;99.90;;;;;;4845573;29;20098;-90
2023/05/22 03:49:54;;;;;;;20.55;18.42;;;18.70;99.90;;;;;;4848644;29;20402;-90
2023/05/22 03:52:21;;;;;;;25.08;21.77;;;18.70;99.90;;;;;;4859366;29;20514;-90
2023/05/22 03:54:46;;;;;;;28.95;22.67;;;18.70;99.90;;;;;;4858207;29;20065;-91
2023/05/22 03:57:12;;;;;;;19.52;17.45;;;18.70;99.90;;;;;;4841485;29;20482;-90
2023/05/22 03:59:38;;;;;;;19.88;17.85;;;18.60;99.90;;;;;;4838246;29;20037;-88
2023/05/22 04:02:04;;;;;;;19.85;17.42;;;18.60;99.90;;;;;;4841627;29;20053;-89
2023/05/22 04:04:32;;;;;;;18.65;16.85;;;18.60;99.90;;;;;;4842026;29;20050;-91
2023/05/22 04:06:58;;;;;;;20.67;16.98;;;18.60;99.90;;;;;;4860820;29;20197;-90
2023/05/22 04:09:30;;;;;;;19.63;17.58;;;18.60;99.90;;;;;;4843225;29;20526;-89
2023/05/22 04:11:56;;;;;;;24.60;20.70;;;18.60;99.90;;;;;;4839999;29;20053;-89
2023/05/22 04:14:22;;;;;;;19.58;17.52;;;18.50;99.90;;;;;;4845150;29;20458;-89
2023/05/22 04:16:47;;;;;;;19.42;17.42;;;18.50;99.90;;;;;;4835788;29;20504;-87
2023/05/22 04:19:13;;;;;;;22.83;19.08;;;18.50;99.90;;;;;;4843930;29;20410;-88
2023/05/22 04:21:38;;;;;;;19.13;17.08;;;18.50;99.90;;;;;;4854650;29;20424;-86
2023/05/22 04:24:05;;;;;;;19.48;17.42;;;18.50;99.90;;;;;;4845336;29;20509;-87
2023/05/22 04:26:36;;;;;;;22.30;19.92;;;18.50;99.90;;;;;;4841132;29;20054;-86
2023/05/22 04:29:02;;;;;;;22.88;20.52;;;18.50;99.90;;;;;;4843771;29;20046;-86
2023/05/22 04:31:28;;;;;;;25.13;21.98;;;18.50;99.90;;;;;;4843622;29;20509;-90
2023/05/22 04:33:54;;;;;;;21.85;19.63;;;18.50;99.90;;;;;;4848865;29;20050;-87
2023/05/22 04:36:25;;;;;;;27.23;21.80;;;18.50;99.90;;;;;;4864034;29;20049;-92
2023/05/22 04:38:52;;;;;;;21.67;19.48;;;18.40;99.90;;;;;;4844329;29;20046;-91
2023/05/22 04:41:18;;;;;;;19.20;17.20;;;18.40;99.90;;;;;;4845019;29;20045;-90
2023/05/22 04:43:47;;;;;;;24.52;21.15;;;18.40;99.90;;;;;;4847390;29;20056;-91
2023/05/22 04:46:13;;;;;;;21.05;18.88;;;18.30;99.90;;;;;;4853898;29;20049;-93
2023/05/22 04:48:39;;;;;;;21.02;18.40;;;18.40;99.90;;;;;;4853199;29;20050;-90
2023/05/22 04:51:05;;;;;;;22.25;19.85;;;18.30;99.90;;;;;;4845506;29;20563;-90
2023/05/22 04:53:32;;;;;;;25.27;21.10;;;18.30;99.90;;;;;;4853321;29;20042;-90
2023/05/22 04:55:58;;;;;;;27.38;21.15;;;18.30;99.90;;;;;;4879659;29;20104;-91
2023/05/22 04:58:26;;;;;;;22.98;20.42;;;18.30;99.90;;;;;;4849807;29;20495;-90
2023/05/22 05:00:56;;;;;;;21.17;18.98;;;18.30;99.90;;;;;;4879528;29;20101;-90
2023/05/22 05:03:24;;;;;;;20.33;18.17;;;18.20;99.90;;;;;;4853337;29;20065;-91
2023/05/22 05:05:53;;;;;;;27.65;22.45;;;18.20;99.90;;;;;;4844300;29;20046;-90
2023/05/22 05:08:18;;;;;;;25.70;20.90;;;18.20;99.90;;;;;;4844637;29;20046;-90
2023/05/22 05:10:44;;;;;;;21.38;19.15;;;18.20;99.90;;;;;;4850928;29;20522;-91
2023/05/22 05:13:20;;;;;;;26.35;22.02;;;18.20;99.90;;;;;;4857255;29;20038;-91
2023/05/22 05:15:46;;;;;;;21.33;18.92;;;18.20;99.90;;;;;;4857058;29;20046;-90
2023/05/22 05:18:34;;;;;;;20.85;18.65;;;18.10;99.90;;;;;;4852524;29;20553;-91
2023/05/22 05:21:12;;;;;;;;;;;;;;;;;;;;;
2023/05/22 05:24:17;;;;;;;27.23;23.88;;;18.10;99.90;;;;;;4843765;29;20129;-88
2023/05/22 05:26:43;;;;;;;21.52;19.23;;;18.10;99.90;;;;;;4842856;29;20529;-89
2023/05/22 05:29:08;;;;;;;25.08;22.00;;;18.10;99.90;;;;;;4847557;29;20046;-90
2023/05/22 05:31:34;;;;;;;23.75;20.17;;;18.00;99.90;;;;;;4844350;29;20056;-90
2023/05/22 05:34:00;;;;;;;29.35;23.77;;;18.00;99.90;;;;;;4846667;29;20069;-90
2023/05/22 05:36:29;;;;;;;22.40;19.80;;;18.00;99.90;;;;;;4845698;29;20085;-90
2023/05/22 05:38:57;;;;;;;22.40;19.75;;;18.00;99.90;;;;;;4845343;29;20110;-91
2023/05/22 05:41:22;;;;;;;21.80;19.52;;;18.00;99.90;;;;;;4853206;29;20060;-92
2023/05/22 05:43:50;;;;;;;20.25;18.05;;;18.00;99.90;;;;;;4863298;29;20057;-91
2023/05/22 05:46:16;;;;;;;24.67;22.08;;;18.00;99.90;;;;;;4851195;29;20061;-91
2023/05/22 05:48:42;;;;;;;22.17;19.77;;;18.00;99.90;;;;;;4843815;29;20042;-90
2023/05/22 05:51:11;;;;;;;23.52;19.55;;;18.00;99.90;;;;;;4856657;29;20085;-94
2023/05/22 05:53:36;;;;;;;22.00;19.67;;;18.00;99.90;;;;;;4844361;29;20212;-92
2023/05/22 05:56:06;;;;;;;23.77;21.25;;;18.00;99.90;;;;;;4844080;29;20073;-91
2023/05/22 05:58:31;;;;;;;23.38;19.65;;;18.00;99.90;;;;;;4858385;29;20049;-90
2023/05/22 06:01:03;;;;;;;29.77;23.88;;;18.00;99.90;;;;;;4848690;29;20109;-91
2023/05/22 06:03:28;;;;;;;26.65;22.88;;;18.00;99.90;;;;;;4872154;29;20050;-89
2023/05/22 06:05:54;;;;;;;28.45;22.23;;;18.00;99.90;;;;;;4846056;29;20050;-87
2023/05/22 06:08:27;;;;;;;24.15;19.95;;;17.90;99.90;;;;;;4854783;29;20418;-91
2023/05/22 06:10:52;;;;;;;26.90;21.65;;;17.90;99.90;;;;;;4849187;29;20050;-88
2023/05/22 06:13:24;;;;;;;21.92;19.63;;;17.90;99.90;;;;;;4841330;29;20057;-89
2023/05/22 06:15:50;;;;;;;23.00;20.00;;;17.90;99.90;;;;;;4842529;29;20054;-87
2023/05/22 06:18:16;;;;;;;24.95;20.67;;;17.90;99.90;;;;;;4846576;29;20051;-89
2023/05/22 06:20:42;;;;;;;24.42;20.23;;;17.90;99.90;;;;;;4843585;29;20054;-87
2023/05/22 06:23:07;;;;;;;28.05;19.67;;;17.90;99.90;;;;;;4843280;29;20125;-88
2023/05/22 06:25:33;;;;;;;24.05;19.88;;;17.90;99.90;;;;;;4840799;29;20050;-88
2023/05/22 06:27:59;;;;;;;26.00;19.77;;;17.80;99.90;;;;;;4838016;29;20077;-89
2023/05/22 06:30:25;;;;;;;26.10;20.52;;;17.80;99.90;;;;;;4843297;29;20125;-89
2023/05/22 06:32:51;;;;;;;21.88;19.42;;;17.90;99.90;;;;;;4845233;29;20058;-91
2023/05/22 06:35:20;;;;;;;23.55;19.13;;;17.80;99.90;;;;;;4843817;29;20056;-91
2023/05/22 06:37:45;;;;;;;23.80;18.38;;;17.80;99.90;;;;;;4873142;29;20053;-89
2023/05/22 06:40:11;;;;;;;23.70;19.50;;;17.90;99.90;;;;;;4841578;29;20061;-89
2023/05/22 06:42:37;;;;;;;24.45;18.48;;;17.80;99.90;;;;;;4841618;29;20086;-88
2023/05/22 06:45:03;;;;;;;21.70;18.52;;;17.90;99.90;;;;;;4843306;29;20498;-88
2023/05/22 06:47:30;;;;;;;23.15;18.83;;;17.90;99.90;;;;;;4841128;29;20085;-88
2023/05/22 06:49:55;;;;;;;23.23;17.15;;;17.80;99.90;;;;;;4841313;29;20045;-89
2023/05/22 06:52:21;;;;;;;22.00;18.80;;;17.80;99.90;;;;;;4842217;29;20053;-88
2023/05/22 06:54:46;;;;;;;27.05;17.42;;;17.80;99.90;;;;;;4841987;29;20054;-89
2023/05/22 06:57:12;;;;;;;23.98;17.65;;;17.80;99.90;;;;;;4841142;29;20050;-88
2023/05/22 06:59:37;;;;;;;20.27;15.23;;;17.80;99.90;;;;;;4841408;29;20077;-88
2023/05/22 07:02:03;;;;;;;20.15;16.83;;;17.80;99.90;;;;;;4841339;29;20126;-88
2023/05/22 07:04:29;;;;;;;21.20;16.00;;;17.80;99.90;;;;;;4841543;29;20058;-90
2023/05/22 07:06:55;;;;;;;25.58;16.48;;;17.80;99.90;;;;;;4840530;29;20080;-88
2023/05/22 07:09:21;;;;;;;21.60;15.73;;;17.90;99.90;;;;;;4842618;29;20497;-88
2023/05/22 07:11:46;;;;;;;22.30;15.23;;;17.90;99.90;;;;;;4840853;29;20042;-89
2023/05/22 07:14:12;;;;;;;21.85;16.38;;;17.90;99.90;;;;;;4842057;29;20041;-88
2023/05/22 07:16:39;;;;;;;19.20;15.18;;;17.90;99.90;;;;;;4841834;29;20050;-88
2023/05/22 07:19:05;;;;;;;22.67;16.08;;;17.90;99.90;;;;;;4841882;29;20103;-90
2023/05/22 07:21:31;;;;;;;18.33;13.57;;;17.90;99.90;;;;;;4840657;29;20056;-89
2023/05/22 07:23:57;;;;;;;22.38;13.88;;;17.90;99.90;;;;;;4841486;29;20483;-87
2023/05/22 07:26:24;;;;;;;19.50;15.93;;;17.90;99.90;;;;;;4840289;29;20054;-90
2023/05/22 07:28:50;;;;;;;18.00;14.20;;;17.90;99.90;;;;;;4831166;29;20103;-89
2023/05/22 07:31:16;;;;;;;19.38;14.05;;;17.90;99.90;;;;;;4824396;29;20089;-91
2023/05/22 07:33:41;;;;;;;19.10;13.55;;;17.90;99.90;;;;;;4837803;29;20081;-89
2023/05/22 07:36:07;;;;;;;19.00;13.82;;;17.90;99.90;;;;;;4826432;29;20410;-89
2023/05/22 07:38:32;;;;;;;18.08;12.63;;;17.90;99.90;;;;;;4824858;29;20138;-89
2023/05/22 07:40:58;;;;;;;17.70;13.13;;;17.90;99.90;;;;;;4822710;29;20129;-88
2023/05/22 07:43:24;;;;;;;19.35;11.73;;;18.00;99.90;;;;;;4838636;29;20133;-87
2023/05/22 07:45:50;;;;;;;15.32;12.95;;;18.00;99.90;;;;;;4840558;29;20049;-89
2023/05/22 07:48:16;;;;;;;19.63;13.27;;;18.00;99.90;;;;;;4839497;29;20047;-89
2023/05/22 07:50:44;;;;;;;17.67;11.82;;;18.00;99.90;;;;;;4841547;29;20095;-87
2023/05/22 07:53:10;;;;;;;19.30;11.95;;;18.00;99.90;;;;;;4829119;29;20059;-87
2023/05/22 07:55:36;;;;;;;13.40;11.40;;;18.00;99.90;;;;;;4840587;29;20042;-89
2023/05/22 07:58:03;;;;;;;16.05;11.05;;;18.00;99.90;;;;;;4839353;29;20407;-88
2023/05/22 08:00:28;;;;;;;17.30;10.60;;;18.00;99.90;;;;;;4839486;29;20065;-89
2023/05/22 08:02:54;;;;;;;17.85;10.35;;;18.00;99.90;;;;;;4841311;29;20054;-91
2023/05/22 08:05:42;;;;;;;19.25;10.45;;;18.00;99.90;;;;;;4843033;29;20141;-90
2023/05/22 08:08:11;;;;;;;19.90;9.20;;;18.00;99.90;;;;;;4827828;29;20057;-89
2023/05/22 08:10:37;;;;;;;20.88;9.05;;;18.00;99.90;;;;;;4836982;29;20090;-90
2023/05/22 08:13:16;;;;;;;17.42;9.55;;;18.00;99.90;;;;;;4827146;29;20077;-89
2023/05/22 08:15:45;;;;;;;22.23;9.38;;;18.00;99.90;;;;;;4826969;29;20502;-91
2023/05/22 08:18:21;;;;;;;16.52;10.15;;;18.00;99.90;;;;;;4825770;29;20062;-91
2023/05/22 08:21:36;;;;;;;17.13;9.32;;;18.00;99.90;;;;;;4830407;29;20062;-90
2023/05/22 08:24:47;;;;;;;14.10;9.75;;;18.00;99.90;;;;;;4836954;29;20050;-89
2023/05/22 08:27:18;;;;;;;15.02;9.70;;;18.00;99.90;;;;;;4843328;29;20060;-90
2023/05/22 08:30:00;;;;;;;;;;;;;;;;;;;;;
2023/05/22 08:39:42;;;;;;;21.33;8.68;;;18.00;99.90;;;;;;4804508;29;20114;-88
2023/05/22 08:42:53;;;;;;;22.20;8.57;;;18.00;99.90;;;;;;4840291;29;20058;-89
2023/05/22 08:48:48;;;;;;;18.52;9.18;;;18.00;99.90;;;;;;4828888;29;20136;-90
2023/05/22 08:51:25;;;;;;;15.65;8.77;;;18.10;99.90;;;;;;4847371;29;20192;-90
2023/05/22 08:54:11;;;;;;;15.95;8.40;;;18.10;99.90;;;;;;4836518;29;20133;-89
2023/05/22 08:56:39;;;;;;;18.38;9.15;;;18.10;99.90;;;;;;4826986;29;20568;-90
2023/05/22 08:59:24;;;;;;;23.02;9.50;;;18.20;99.90;;;;;;4826580;29;20137;-91
2023/05/22 09:04:48;;;;;;;21.70;9.35;;;18.20;99.90;;;;;;4841829;29;20050;-89
2023/05/22 09:07:16;;;;;;;22.65;8.88;;;18.20;99.90;;;;;;4836210;29;20054;-90
2023/05/22 09:09:42;;;;;;;22.50;9.68;;;18.20;99.90;;;;;;4826421;29;20153;-90
2023/05/22 09:12:09;;;;;;;20.25;9.80;;;18.20;99.90;;;;;;4843523;29;20056;-90
2023/05/22 09:14:42;;;;;;;17.05;8.45;;;18.20;99.90;;;;;;4839513;29;20050;-93
2023/05/22 09:17:09;;;;;;;18.08;9.07;;;18.20;99.90;;;;;;4840994;29;20083;-90
2023/05/22 09:19:35;;;;;;;18.77;9.52;;;18.30;99.90;;;;;;4824690;29;20054;-90
2023/05/22 09:22:03;;;;;;;18.83;9.20;;;18.30;99.90;;;;;;4826197;29;20042;-93
2023/05/22 09:24:29;;;;;;;20.40;9.75;;;18.30;99.90;;;;;;4826676;29;20053;-90
2023/05/22 09:26:54;;;;;;;15.02;8.48;;;18.30;99.90;;;;;;4825937;29;20187;-91
2023/05/22 09:29:21;;;;;;;20.42;9.77;;;18.40;99.90;;;;;;4826187;29;20141;-94
2023/05/22 09:31:47;;;;;;;23.15;10.25;;;18.50;99.90;;;;;;4825976;29;20499;-91
2023/05/22 09:34:13;;;;;;;18.58;9.80;;;18.50;99.90;;;;;;4827108;29;20050;-92
2023/05/22 09:36:40;;;;;;;16.95;8.23;;;18.60;99.90;;;;;;4825261;29;20058;-94
2023/05/22 09:39:33;;;;;;;20.55;9.57;;;18.60;99.90;;;;;;4825441;29;20195;-91
2023/05/22 09:42:07;;;;;;;15.73;9.10;;;18.70;99.90;;;;;;4841178;29;20089;-93
2023/05/22 09:44:48;;;;;;;19.42;9.13;;;18.70;99.90;;;;;;4838843;29;20045;-94
2023/05/22 09:47:25;;;;;;;17.05;8.90;;;18.80;99.90;;;;;;4845687;29;20045;-92
2023/05/22 09:49:50;;;;;;;18.05;8.93;;;18.80;99.90;;;;;;4842362;29;20060;-89
2023/05/22 09:52:18;;;;;;;25.70;10.32;;;18.90;99.90;;;;;;4842841;29;20038;-90
2023/05/22 09:55:06;;;;;;;17.55;10.40;;;18.90;99.90;;;;;;4842816;29;20065;-91
2023/05/22 09:57:38;;;;;;;18.15;9.63;;;19.00;99.60;;;;;;4841542;29;20057;-91
2023/05/22 10:00:11;;;;;;;17.23;9.63;;;19.10;99.50;;;;;;4843497;29;20046;-92
2023/05/22 10:03:14;;;;;;;14.63;9.37;;;19.10;99.70;;;;;;4842226;29;20542;-92
2023/05/22 10:05:49;;;;;;;21.35;9.50;;;19.10;99.70;;;;;;4799590;29;20427;-91
2023/05/22 10:08:18;;;;;;;18.95;9.43;;;19.20;99.70;;;;;;4776172;30;20109;-91
2023/05/22 10:10:54;;;;;;;17.17;9.70;;;19.20;99.80;;;;;;4772090;30;20538;-94
2023/05/22 10:13:21;;;;;;;17.15;9.13;;;19.30;99.90;;;;;;4774227;30;20063;-89
2023/05/22 10:15:48;;;;;;;14.82;8.68;;;19.40;99.90;;;;;;4768382;30;20047;-91
2023/05/22 10:18:15;;;;;;;18.17;10.57;;;19.50;99.90;;;;;;4771710;30;20044;-92
2023/05/22 10:20:49;;;;;;;17.20;9.40;;;19.50;99.60;;;;;;4799078;29;20100;-93
2023/05/22 10:23:16;;;;;;;14.32;8.52;;;19.60;99.50;;;;;;4776444;29;20493;-91
2023/05/22 10:25:43;;;;;;;14.57;9.25;;;19.70;99.40;;;;;;4777858;30;20058;-91
2023/05/22 10:28:09;;;;;;;17.88;9.20;;;19.80;99.30;;;;;;4788004;30;20051;-92
2023/05/22 10:34:47;;;;;;;17.10;10.43;;;20.00;98.90;;;;;;4778254;29;20066;-95
2023/05/22 10:37:42;;;;;;;16.55;9.50;;;20.00;98.90;;;;;;4768837;30;20056;-93
2023/05/22 10:41:01;;;;;;;14.48;9.25;;;20.10;98.80;;;;;;4787403;29;20138;-93
2023/05/22 10:51:17;;;;;;;18.65;10.80;;;20.40;98.10;;;;;;4717207;30;20119;-93
2023/05/22 10:53:56;;;;;;;;;;;;;;;;;;;;;
2023/05/22 11:19:24;;;;;;;15.90;11.45;;;21.10;98.20;;;;;;4807332;29;20049;-93
2023/05/22 11:29:25;;;;;;;17.35;10.75;;;21.50;98.00;;;;;;4684164;30;20119;-89
2023/05/22 11:36:09;;;;;;;12.65;9.70;;;21.70;97.50;;;;;;4680670;30;20460;-91
2023/05/22 11:41:52;;;;;;;17.00;9.27;;;21.90;97.10;;;;;;4892452;24;20076;-91
2023/05/22 11:48:18;;;;;;;13.98;9.45;;;22.10;97.10;;;;;;4832968;29;20114;-90
2023/05/22 11:50:52;;;;;;;17.52;9.40;;;22.30;97.10;;;;;;4828657;29;20054;-93
2023/05/22 11:57:55;;;;;;;12.48;8.63;;;22.40;96.40;;;;;;4791184;29;20058;-91
2023/05/22 12:01:01;;;;;;;12.75;8.77;;;22.50;96.60;;;;;;4796654;29;20084;-90
2023/05/22 12:07:37;;;;;;;;;;;;;;;;;;;;;
2023/05/22 12:45:20;;;;;;;14.88;9.18;;;23.80;92.30;;;;;;4771242;30;20094;-90
2023/05/22 12:50:24;;;;;;;12.82;8.82;;;24.00;91.60;;;;;;4932878;24;20130;-90
2023/05/22 12:52:50;;;;;;;15.52;9.60;;;24.00;92.00;;;;;;4907399;24;20504;-90
2023/05/22 12:55:20;;;;;;;14.48;11.00;;;24.10;91.90;;;;;;4843566;29;20053;-89
2023/05/22 13:01:23;;;;;;;15.55;10.77;;;24.30;91.70;;;;;;4846066;29;20046;-88
2023/05/22 13:04:04;;;;;;;17.48;11.93;;;24.30;91.10;;;;;;4853524;29;20510;-89
2023/05/22 13:06:30;;;;;;;17.48;12.35;;;24.30;90.60;;;;;;4844232;29;20464;-90
2023/05/22 13:08:59;;;;;;;18.65;12.05;;;24.30;90.10;;;;;;4844893;29;20099;-92
2023/05/22 13:11:48;;;;;;;18.15;12.45;;;24.30;89.80;;;;;;4843104;29;20049;-91
2023/05/22 13:14:26;;;;;;;16.52;11.40;;;24.40;90.40;;;;;;4838332;29;20058;-91
2023/05/22 13:17:09;;;;;;;;;;;;;;;;;;;;;
2023/05/22 13:19:53;;;;;;;18.75;11.80;;;24.50;91.50;;;;;;4847328;29;20061;-91
2023/05/22 13:22:20;;;;;;;18.52;12.93;;;24.50;91.40;;;;;;4842887;29;20041;-93
2023/05/22 13:24:46;;;;;;;17.88;12.85;;;24.50;91.30;;;;;;4845733;29;20084;-91
2023/05/22 13:27:15;;;;;;;16.50;12.07;;;24.60;90.50;;;;;;4841732;29;20065;-92
2023/05/22 13:29:40;;;;;;;15.68;12.38;;;24.60;91.80;;;;;;4849868;29;20045;-92
2023/05/22 13:32:09;;;;;;;16.88;11.55;;;24.60;90.90;;;;;;4843674;29;20094;-91
2023/05/22 13:40:32;;;;;;;19.00;13.00;;;24.60;91.70;;;;;;4816411;29;20085;-91
2023/05/22 13:43:09;;;;;;;20.05;13.50;;;24.60;91.50;;;;;;4839552;29;20514;-90
2023/05/22 13:45:35;;;;;;;18.42;13.00;;;24.60;92.10;;;;;;4835506;29;20038;-89
2023/05/22 13:48:00;;;;;;;17.92;13.52;;;24.50;91.10;;;;;;4842428;29;20125;-89
2023/05/22 13:50:29;;;;;;;19.48;13.07;;;24.50;92.60;;;;;;4834863;29;20089;-88
2023/05/22 13:52:55;;;;;;;20.02;13.65;;;24.60;92.90;;;;;;4823845;29;20099;-88
2023/05/22 13:55:21;;;;;;;22.13;13.88;;;24.60;93.80;;;;;;4826688;29;20117;-88
2023/05/22 13:57:47;;;;;;;20.77;13.60;;;24.60;92.30;;;;;;4841849;29;20129;-90
2023/05/22 14:00:13;;;;;;;23.88;14.00;;;24.60;93.20;;;;;;4828655;29;20242;-90
2023/05/22 14:02:39;;;;;;;19.90;14.10;;;24.50;92.30;;;;;;4823595;29;20038;-90
2023/05/22 14:05:16;;;;;;;22.08;14.77;;;24.50;92.60;;;;;;4834451;29;20510;-91
2023/05/22 14:07:44;;;;;;;22.95;13.70;;;24.50;93.10;;;;;;4840691;29;20140;-88
2023/05/22 14:10:10;;;;;;;20.83;14.75;;;24.50;93.10;;;;;;4824347;29;20046;-87
2023/05/22 14:12:36;;;;;;;20.45;14.13;;;24.50;93.40;;;;;;4823605;29;20058;-87
2023/05/22 14:15:38;;;;;;;;;;;;;;;;;;;;;
2023/05/22 14:18:22;;;;;;;21.88;15.18;;;24.60;94.40;;;;;;4824627;29;20084;-90
2023/05/22 14:21:09;;;;;;;21.38;14.10;;;24.70;93.00;;;;;;4834719;29;20046;-90
2023/05/22 14:23:38;;;;;;;19.83;14.40;;;24.70;92.90;;;;;;4842419;29;20053;-89
2023/05/22 14:26:31;;;;;;;19.23;14.50;;;24.70;92.90;;;;;;4826486;29;20054;-91
2023/05/22 14:29:03;;;;;;;19.27;13.85;;;24.70;92.40;;;;;;4831636;29;20061;-91
2023/05/22 14:31:51;;;;;;;16.00;12.17;;;24.60;92.20;;;;;;4832541;29;20050;-90
2023/05/22 14:34:25;;;;;;;17.17;11.88;;;24.50;91.60;;;;;;4842764;29;20060;-91
2023/05/22 14:36:51;;;;;;;15.60;10.32;;;24.40;90.60;;;;;;4827699;29;20388;-86
2023/05/22 14:39:17;;;;;;;14.05;12.05;;;24.40;90.00;;;;;;4823130;29;20092;-87
2023/05/22 14:41:43;;;;;;;17.95;10.75;;;24.20;92.20;;;;;;4823249;29;20042;-87
2023/05/22 14:44:08;;;;;;;15.43;11.60;;;24.20;91.50;;;;;;4836883;29;20567;-87
2023/05/22 14:46:36;;;;;;;17.88;10.80;;;24.20;91.40;;;;;;4839307;29;20041;-89
2023/05/22 14:49:02;;;;;;;13.80;9.80;;;24.10;91.30;;;;;;4841431;29;20057;-88
2023/05/22 14:51:34;;;;;;;16.08;10.18;;;24.10;90.90;;;;;;4823887;29;20134;-90
2023/05/22 14:54:00;;;;;;;15.10;9.70;;;24.10;92.70;;;;;;4823209;29;20057;-90